Time;durP1;ratioP1;P1;durP2;ratioP2;P2;SDS_P1;SDS_P2;PMS_P1;PMS_P2;Temp;Humidity;BMP_temperature;BMP_pressure;BME280_temperature;BME280_humidity;BME280_pressure;Samples;Min_cycle;Max_cycle;Signal;HPM_P1;HPM_P2
2021/05/30 00:02:43;;;;;;;5.65;2.15;;;;;;;8.03;100.00;101234.19;4776491;30;20054;-51
2021/05/30 00:05:47;;;;;;;3.83;1.77;;;;;;;8.01;100.00;101233.84;4788040;30;20050;-51
2021/05/30 00:08:54;;;;;;;5.78;2.30;;;;;;;7.95;100.00;101232.78;4787770;30;20557;-51
2021/05/30 00:11:57;;;;;;;2.40;1.08;;;;;;;7.90;100.00;101230.47;4777567;30;20046;-51
2021/05/30 00:15:00;;;;;;;2.83;1.92;;;;;;;7.82;100.00;101231.81;4786529;30;20058;-51
2021/05/30 00:18:04;;;;;;;5.20;2.13;;;;;;;7.71;100.00;101245.09;4787876;30;20054;-51
2021/05/30 00:21:08;;;;;;;7.45;2.72;;;;;;;7.65;100.00;101233.66;4787866;30;20518;-51
2021/05/30 00:24:12;;;;;;;4.05;1.65;;;;;;;7.59;100.00;101233.38;4787162;30;20516;-51
2021/05/30 00:27:16;;;;;;;10.32;2.75;;;;;;;7.58;100.00;101231.81;4776738;30;20405;-51
2021/05/30 00:30:20;;;;;;;2.15;1.85;;;;;;;7.56;100.00;101234.22;4787958;30;20055;-52
2021/05/30 00:33:23;;;;;;;4.65;2.50;;;;;;;7.56;100.00;101233.41;4787797;30;20050;-51
2021/05/30 00:36:26;;;;;;;9.20;2.20;;;;;;;7.53;100.00;101228.75;4788292;30;20393;-51
2021/05/30 00:39:30;;;;;;;3.40;2.28;;;;;;;7.43;100.00;101224.94;4776664;30;20515;-50
2021/05/30 00:42:33;;;;;;;8.55;3.13;;;;;;;7.36;100.00;101225.03;4787893;30;20071;-51
2021/05/30 00:45:37;;;;;;;5.93;1.98;;;;;;;7.29;100.00;101219.63;4787112;30;20070;-50
2021/05/30 00:48:40;;;;;;;7.07;1.90;;;;;;;7.26;100.00;101220.44;4787362;30;20577;-51
2021/05/30 00:51:44;;;;;;;2.67;1.80;;;;;;;7.21;100.00;101222.94;4787407;30;20143;-51
2021/05/30 00:54:50;;;;;;;6.53;1.98;;;;;;;7.13;100.00;101216.69;4787225;30;20073;-50
2021/05/30 00:57:54;;;;;;;2.75;1.60;;;;;;;7.09;100.00;101226.25;4771180;30;20530;-52
2021/05/30 01:00:57;;;;;;;5.10;1.95;;;;;;;7.04;100.00;101230.28;4787037;30;20511;-51
2021/05/30 01:04:01;;;;;;;1.50;1.40;;;;;;;6.99;100.00;101233.53;4787481;30;20074;-52
2021/05/30 01:07:04;;;;;;;6.35;1.50;;;;;;;6.95;100.00;101227.28;4787975;30;20066;-52
2021/05/30 01:10:28;;;;;;;1.80;1.50;;;;;;;6.91;100.00;101220.97;4787491;30;20058;-51
2021/05/30 01:13:33;;;;;;;1.58;1.30;;;;;;;6.86;100.00;101215.94;4788482;29;20074;-51
2021/05/30 01:16:38;;;;;;;7.00;2.08;;;;;;;6.82;100.00;101235.34;4791511;30;20054;-51
2021/05/30 01:19:44;;;;;;;3.05;1.60;;;;;;;6.77;100.00;101237.78;4791178;30;20062;-51
2021/05/30 01:22:49;;;;;;;9.13;1.98;;;;;;;6.75;100.00;101223.59;4791284;30;20898;-52
2021/05/30 01:25:53;;;;;;;3.80;1.85;;;;;;;6.69;100.00;101230.78;4780177;30;20074;-52
2021/05/30 01:28:57;;;;;;;2.67;2.38;;;;;;;6.67;100.00;101233.19;4791171;30;20046;-52
2021/05/30 01:32:00;;;;;;;2.42;2.05;;;;;;;6.64;100.00;101228.47;4791010;30;20054;-51
2021/05/30 01:35:06;;;;;;;4.68;1.80;;;;;;;6.61;100.00;101229.28;4789368;30;20503;-52
2021/05/30 01:38:11;;;;;;;7.68;2.30;;;;;;;6.55;100.00;101236.50;4789840;30;20058;-52
2021/05/30 01:41:14;;;;;;;1.83;1.65;;;;;;;6.50;100.00;101234.97;4790870;30;20070;-51
2021/05/30 01:44:18;;;;;;;4.72;2.15;;;;;;;6.45;100.00;101240.19;4790945;30;20062;-52
2021/05/30 01:47:21;;;;;;;3.95;2.22;;;;;;;6.41;100.00;101242.22;4788149;29;20047;-52
2021/05/30 01:50:28;;;;;;;5.00;1.50;;;;;;;6.31;100.00;101240.34;4789455;29;20528;-52
2021/05/30 01:53:54;;;;;;;2.53;1.88;;;;;;;6.29;100.00;101235.22;4790781;30;20050;-52
2021/05/30 01:56:58;;;;;;;3.95;1.90;;;;;;;6.27;100.00;101231.31;4790320;30;20062;-52
2021/05/30 02:00:02;;;;;;;4.25;1.85;;;;;;;6.23;100.00;101230.56;4779470;30;20054;-52
2021/05/30 02:03:06;;;;;;;3.85;1.70;;;;;;;6.17;100.00;101226.69;4785934;30;20070;-52
2021/05/30 02:06:14;;;;;;;1.73;1.63;;;;;;;6.13;100.00;101225.94;4778865;30;20412;-52
2021/05/30 02:09:18;;;;;;;2.78;1.80;;;;;;;6.09;100.00;101229.53;4778994;30;20054;-52
2021/05/30 02:12:22;;;;;;;3.92;1.85;;;;;;;6.04;100.00;101227.19;4790292;30;20051;-52
2021/05/30 02:15:26;;;;;;;4.10;2.42;;;;;;;6.02;100.00;101237.88;4790024;30;20055;-52
2021/05/30 02:18:29;;;;;;;2.20;1.73;;;;;;;6.03;100.00;101224.84;4790129;30;20058;-51
2021/05/30 02:21:43;;;;;;;5.55;2.20;;;;;;;6.02;100.00;101224.06;4789976;30;20405;-51
2021/05/30 02:24:46;;;;;;;3.85;2.72;;;;;;;6.01;100.00;101236.31;4789600;29;20061;-52
2021/05/30 02:27:51;;;;;;;3.70;2.17;;;;;;;6.01;100.00;101227.25;4790136;30;20496;-51
2021/05/30 02:30:55;;;;;;;1.75;1.70;;;;;;;5.96;100.00;101225.72;4789741;30;20055;-52
2021/05/30 02:33:58;;;;;;;6.53;2.67;;;;;;;5.93;100.00;101229.28;4789318;30;20054;-52
2021/05/30 02:37:03;;;;;;;2.35;1.73;;;;;;;5.91;100.00;101226.16;4790083;30;20058;-52
2021/05/30 02:40:07;;;;;;;1.42;1.20;;;;;;;5.88;100.00;101229.75;4789529;30;20078;-52
2021/05/30 02:43:11;;;;;;;10.77;1.88;;;;;;;5.86;100.00;101229.38;4788825;29;20062;-51
2021/05/30 02:46:15;;;;;;;5.50;2.10;;;;;;;5.83;100.00;101224.63;4789907;30;20047;-52
2021/05/30 02:49:19;;;;;;;1.63;1.52;;;;;;;5.79;100.00;101229.41;4790160;30;20393;-52
2021/05/30 02:52:22;;;;;;;2.90;2.00;;;;;;;5.75;100.00;101227.88;4789895;30;20054;-52
2021/05/30 02:55:25;;;;;;;3.92;1.77;;;;;;;5.74;100.00;101220.78;4789691;30;20054;-52
2021/05/30 02:58:29;;;;;;;3.90;1.48;;;;;;;5.74;100.00;101221.53;4789720;30;20062;-52
2021/05/30 03:01:33;;;;;;;4.78;2.08;;;;;;;5.71;100.00;101222.38;4789182;30;20150;-52
2021/05/30 03:04:36;;;;;;;3.65;2.45;;;;;;;5.70;100.00;101226.31;4789606;30;20057;-52
2021/05/30 03:07:39;;;;;;;4.57;1.90;;;;;;;5.67;100.00;101227.16;4789422;30;20401;-52
2021/05/30 03:10:43;;;;;;;2.05;1.50;;;;;;;5.59;100.00;101217.34;4789227;30;20059;-53
2021/05/30 03:13:48;;;;;;;5.28;2.15;;;;;;;5.56;100.00;101226.47;4788812;30;20049;-53
2021/05/30 03:16:51;;;;;;;1.70;1.60;;;;;;;5.51;100.00;101221.38;4789451;30;20377;-52
2021/05/30 03:19:54;;;;;;;4.47;1.88;;;;;;;5.47;100.00;101211.53;4789083;30;20050;-52
2021/05/30 03:22:58;;;;;;;8.27;2.35;;;;;;;5.48;100.00;101219.41;4789238;30;20054;-52
2021/05/30 03:26:03;;;;;;;5.13;2.28;;;;;;;5.45;100.00;101216.69;4789200;30;20397;-52
2021/05/30 03:29:06;;;;;;;3.13;2.17;;;;;;;5.44;100.00;101224.19;4789484;30;20244;-52
2021/05/30 03:32:09;;;;;;;1.55;1.45;;;;;;;5.38;100.00;101210.03;4788570;30;20050;-53
2021/05/30 03:35:13;;;;;;;3.22;1.83;;;;;;;5.37;100.00;101213.97;4778067;30;20054;-51
2021/05/30 03:38:18;;;;;;;2.70;1.98;;;;;;;5.35;100.00;101221.09;4788137;30;20073;-53
2021/05/30 03:41:24;;;;;;;4.78;1.42;;;;;;;5.36;100.00;101222.69;4788309;30;20067;-52
2021/05/30 03:44:28;;;;;;;2.05;1.65;;;;;;;5.30;100.00;101218.78;4777142;30;20405;-52
2021/05/30 03:47:31;;;;;;;5.35;1.83;;;;;;;5.30;100.00;101213.25;4788825;30;20115;-53
2021/05/30 03:50:34;;;;;;;5.22;2.20;;;;;;;5.28;100.00;101221.94;4777289;30;20066;-52
2021/05/30 03:53:38;;;;;;;1.70;1.67;;;;;;;5.28;100.00;101223.94;4783813;30;20047;-51
2021/05/30 03:56:42;;;;;;;2.42;1.95;;;;;;;5.28;100.00;101221.19;4769796;30;20496;-52
2021/05/30 03:59:46;;;;;;;1.75;1.65;;;;;;;5.35;100.00;101223.84;4770808;30;20489;-52
2021/05/30 04:02:49;;;;;;;2.67;2.50;;;;;;;5.35;100.00;101223.84;4759263;30;20058;-52
2021/05/30 04:05:52;;;;;;;2.40;2.30;;;;;;;5.36;100.00;101228.22;4770674;30;20058;-52
2021/05/30 04:09:00;;;;;;;2.47;1.13;;;;;;;5.33;100.00;101220.72;4770368;30;20054;-53
2021/05/30 04:12:05;;;;;;;2.28;2.15;;;;;;;5.36;100.00;101228.22;4770072;30;20512;-52
2021/05/30 04:15:14;;;;;;;4.32;1.55;;;;;;;5.31;100.00;101225.88;4770308;30;20513;-52
2021/05/30 04:18:21;;;;;;;3.45;1.42;;;;;;;5.32;100.00;101227.44;4770036;30;20109;-52
2021/05/30 04:21:25;;;;;;;2.97;1.75;;;;;;;5.30;100.00;101219.59;4769307;30;20058;-52
2021/05/30 04:24:28;;;;;;;3.08;1.55;;;;;;;5.32;100.00;101235.75;4769553;30;20063;-52
2021/05/30 04:27:31;;;;;;;3.20;1.83;;;;;;;5.34;100.00;101227.84;4769921;30;20516;-52
2021/05/30 04:30:36;;;;;;;1.77;1.70;;;;;;;5.35;100.00;101226.63;4769115;30;20070;-52
2021/05/30 04:33:41;;;;;;;4.75;2.20;;;;;;;5.40;100.00;101228.97;4770021;30;20054;-52
2021/05/30 04:36:44;;;;;;;4.80;1.60;;;;;;;5.44;100.00;101224.19;4770084;30;20058;-52
2021/05/30 04:39:48;;;;;;;4.72;2.78;;;;;;;5.50;100.00;101228.06;4769915;30;20086;-52
2021/05/30 04:42:52;;;;;;;1.55;1.42;;;;;;;5.55;100.00;101226.84;4770320;30;20055;-52
2021/05/30 04:45:56;;;;;;;2.53;1.77;;;;;;;5.57;100.00;101227.22;4752103;30;20059;-52
2021/05/30 04:48:59;;;;;;;6.03;3.15;;;;;;;5.56;100.00;101223.72;4751636;30;20406;-52
2021/05/30 04:52:02;;;;;;;1.55;1.45;;;;;;;5.60;100.00;101224.47;4768506;30;20497;-52
2021/05/30 04:55:09;;;;;;;2.50;1.65;;;;;;;5.62;100.00;101219.31;4787862;30;20492;-52
2021/05/30 04:58:13;;;;;;;5.55;2.38;;;;;;;5.67;100.00;101220.84;4788125;30;20050;-52
2021/05/30 05:01:17;;;;;;;7.93;1.77;;;;;;;5.72;100.00;101223.16;4787948;30;20492;-52
2021/05/30 05:04:21;;;;;;;1.90;1.80;;;;;;;5.81;100.00;101224.25;4787667;30;20054;-53
2021/05/30 05:07:24;;;;;;;2.67;2.47;;;;;;;5.90;100.00;101210.78;4795377;24;20077;-45
2021/05/30 05:10:27;;;;;;;1.55;1.45;;;;;;;5.98;100.00;101215.03;4804608;29;20071;-45
2021/05/30 05:13:31;;;;;;;4.57;1.95;;;;;;;6.06;100.00;101210.97;4805435;29;20042;-45
2021/05/30 05:16:35;;;;;;;6.20;2.30;;;;;;;6.15;100.00;101212.50;4805512;29;20062;-45
2021/05/30 05:19:38;;;;;;;2.58;2.38;;;;;;;6.23;100.00;101213.97;4805382;29;20053;-45
2021/05/30 05:22:42;;;;;;;7.45;1.50;;;;;;;6.35;100.00;101218.94;4805268;29;20420;-46
2021/05/30 05:25:53;;;;;;;4.57;2.13;;;;;;;6.46;100.00;101216.84;4804747;29;20062;-46
2021/05/30 05:28:57;;;;;;;3.70;2.80;;;;;;;6.57;100.00;101223.03;4804762;29;20058;-45
2021/05/30 05:32:01;;;;;;;1.40;1.30;;;;;;;6.69;100.00;101208.66;4793964;29;20053;-45
2021/05/30 05:35:05;;;;;;;3.97;1.83;;;;;;;6.83;100.00;101225.84;4805074;29;20054;-45
2021/05/30 05:38:09;;;;;;;2.13;2.03;;;;;;;6.93;100.00;101221.34;4794042;29;20082;-45
2021/05/30 05:41:13;;;;;;;1.13;1.00;;;;;;;7.06;100.00;101216.78;4805398;29;20050;-45
2021/05/30 05:44:17;;;;;;;1.80;1.70;;;;;;;7.18;100.00;101212.66;4793638;29;20058;-45
2021/05/30 05:47:20;;;;;;;2.03;1.92;;;;;;;7.29;100.00;101213.28;4805290;29;20058;-45
2021/05/30 05:50:24;;;;;;;3.10;1.92;;;;;;;7.41;100.00;101210.72;4804943;29;20384;-45
2021/05/30 05:53:28;;;;;;;4.85;1.77;;;;;;;7.52;100.00;101211.31;4804854;29;20404;-45
2021/05/30 05:56:32;;;;;;;4.05;1.90;;;;;;;7.72;100.00;101208.59;4793705;29;20046;-45
2021/05/30 05:59:36;;;;;;;5.13;1.73;;;;;;;7.93;100.00;101210.19;4804916;29;20054;-45
2021/05/30 06:02:39;;;;;;;1.85;0.90;;;;;;;8.05;100.00;101198.50;4808143;29;20121;-45
2021/05/30 06:05:43;;;;;;;3.17;1.75;;;;;;;8.21;100.00;101204.09;4808781;29;20069;-45
2021/05/30 06:08:46;;;;;;;2.25;1.33;;;;;;;8.31;100.00;101211.47;4826392;29;20061;-45
2021/05/30 06:11:49;;;;;;;3.38;1.30;;;;;;;8.39;100.00;101201.78;4826358;29;20057;-45
2021/05/30 06:14:53;;;;;;;4.97;1.38;;;;;;;8.52;100.00;101199.94;4825791;29;20057;-45
2021/05/30 06:17:59;;;;;;;4.32;1.00;;;;;;;8.65;100.00;101203.63;4826296;29;20122;-45
2021/05/30 06:21:08;;;;;;;4.30;1.40;;;;;;;8.80;100.00;101199.31;4826067;29;20067;-45
2021/05/30 06:24:11;;;;;;;3.35;1.33;;;;;;;8.94;100.00;101201.00;4825831;29;20049;-45
2021/05/30 06:27:15;;;;;;;6.65;1.38;;;;;;;9.05;100.00;101193.22;4826197;29;20061;-45
2021/05/30 06:30:18;;;;;;;3.55;1.27;;;;;;;9.18;100.00;101192.06;4815050;29;20053;-45
2021/05/30 06:33:22;;;;;;;2.55;1.50;;;;;;;9.30;100.00;101198.16;4825841;29;20045;-45
2021/05/30 06:36:26;;;;;;;1.63;1.27;;;;;;;9.42;100.00;101197.47;4825882;29;20058;-45
2021/05/30 06:39:29;;;;;;;1.92;0.70;;;;;;;9.54;100.00;101196.78;4825562;29;20058;-45
2021/05/30 06:42:33;;;;;;;2.67;0.90;;;;;;;9.68;100.00;101196.41;4825908;29;20057;-45
2021/05/30 06:45:38;;;;;;;3.67;1.08;;;;;;;9.78;100.00;101192.56;4825506;29;20073;-45
2021/05/30 06:48:42;;;;;;;5.22;0.63;;;;;;;9.86;100.00;101191.16;4825766;29;20053;-45
2021/05/30 06:51:45;;;;;;;1.13;0.50;;;;;;;9.97;100.00;101197.22;4825409;29;20053;-45
2021/05/30 06:54:49;;;;;;;3.22;0.63;;;;;;;10.10;100.00;101195.25;4825291;29;20061;-46
2021/05/30 06:57:52;;;;;;;0.40;0.22;;;;;;;10.20;100.00;101187.88;4824688;29;20407;-45
2021/05/30 07:00:56;;;;;;;2.60;0.88;;;;;;;10.29;100.00;101186.00;4825645;29;20073;-45
2021/05/30 07:04:00;;;;;;;2.05;0.52;;;;;;;10.39;100.00;101198.84;4825417;29;20049;-45
2021/05/30 07:07:04;;;;;;;3.60;0.50;;;;;;;10.52;100.00;101193.31;4825497;29;20054;-45
2021/05/30 07:10:10;;;;;;;1.85;1.10;;;;;;;10.68;100.00;101196.78;4825511;29;20054;-46
2021/05/30 07:13:14;;;;;;;1.70;0.43;;;;;;;10.87;100.00;101194.25;4825235;29;20053;-45
2021/05/30 07:16:18;;;;;;;2.05;0.60;;;;;;;10.95;100.00;101195.59;4825313;29;20057;-45
2021/05/30 07:19:23;;;;;;;0.75;0.43;;;;;;;10.99;100.00;101199.81;4825365;29;20053;-45
2021/05/30 07:22:26;;;;;;;12.00;2.47;;;;;;;11.06;100.00;101191.25;4825258;29;20050;-45
2021/05/30 07:25:30;;;;;;;2.33;0.45;;;;;;;11.17;100.00;101194.47;4813715;29;20054;-45
2021/05/30 07:28:34;;;;;;;1.15;0.60;;;;;;;11.31;100.00;101193.22;4824893;29;20072;-45
2021/05/30 07:31:38;;;;;;;1.75;0.57;;;;;;;11.45;100.00;101192.78;4825100;29;20065;-45
2021/05/30 07:34:41;;;;;;;1.70;0.40;;;;;;;11.54;100.00;101178.91;4824726;29;20045;-46
2021/05/30 07:37:45;;;;;;;3.08;0.70;;;;;;;11.73;100.00;101186.25;4824653;29;20057;-45
2021/05/30 07:40:57;;;;;;;1.80;0.47;;;;;;;12.12;100.00;101179.28;4825475;29;20058;-46
2021/05/30 07:44:05;;;;;;;2.63;0.63;;;;;;;12.26;100.00;101178.00;4825273;29;20061;-51
2021/05/30 07:47:10;;;;;;;1.98;0.90;;;;;;;12.44;100.00;101178.91;4814423;29;20061;-50
2021/05/30 07:50:16;;;;;;;2.03;0.65;;;;;;;12.59;100.00;101167.94;4825113;29;20054;-51
2021/05/30 07:53:19;;;;;;;1.60;0.55;;;;;;;12.75;100.00;101164.94;4825483;29;20046;-52
2021/05/30 07:56:23;;;;;;;1.75;0.65;;;;;;;12.83;100.00;101160.63;4824953;29;20119;-51
2021/05/30 07:59:26;;;;;;;0.30;0.22;;;;;;;12.94;100.00;101156.19;4824324;29;20058;-52
2021/05/30 08:02:31;;;;;;;0.90;0.47;;;;;;;13.23;100.00;101155.06;4824781;29;20499;-51
2021/05/30 08:05:34;;;;;;;2.03;0.45;;;;;;;13.51;100.00;101149.03;4824978;29;20062;-52
2021/05/30 08:08:38;;;;;;;6.07;0.50;;;;;;;13.79;100.00;101146.28;4813783;29;20057;-50
2021/05/30 08:11:42;;;;;;;1.98;0.63;;;;;;;13.87;100.00;101153.09;4825282;29;20050;-50
2021/05/30 08:14:45;;;;;;;2.28;0.43;;;;;;;13.93;100.00;101142.84;4824906;29;20050;-51
2021/05/30 08:17:51;;;;;;;1.67;0.75;;;;;;;14.12;100.00;101144.41;4825123;29;20120;-51
2021/05/30 08:20:54;;;;;;;0.77;0.43;;;;;;;14.32;100.00;101147.50;4824074;29;20049;-51
2021/05/30 08:23:58;;;;;;;0.82;0.25;;;;;;;14.64;100.00;101143.97;4823865;29;20416;-51
2021/05/30 08:27:01;;;;;;;3.28;0.73;;;;;;;14.81;100.00;101145.16;4824787;29;20510;-52
2021/05/30 08:30:07;;;;;;;1.48;0.30;;;;;;;15.00;100.00;101145.88;4824693;29;20045;-51
2021/05/30 08:33:10;;;;;;;3.47;0.60;;;;;;;15.22;100.00;101149.19;4824943;29;20057;-51
2021/05/30 08:36:14;;;;;;;1.35;0.30;;;;;;;15.51;100.00;101156.97;4824681;29;20057;-51
2021/05/30 08:39:17;;;;;;;0.88;0.57;;;;;;;15.76;100.00;101148.09;4824838;29;20061;-51
2021/05/30 08:42:22;;;;;;;2.33;0.43;;;;;;;15.88;100.00;101147.81;4825121;29;20067;-51
2021/05/30 08:45:25;;;;;;;2.08;0.32;;;;;;;15.99;100.00;101154.91;4824637;29;20053;-51
2021/05/30 08:48:29;;;;;;;0.75;0.45;;;;;;;16.18;100.00;101145.84;4824739;29;20053;-51
2021/05/30 08:51:38;;;;;;;1.70;0.73;;;;;;;16.34;100.00;101142.56;4824859;29;20052;-50
2021/05/30 08:54:42;;;;;;;1.13;0.65;;;;;;;16.50;100.00;101150.53;4824658;29;20042;-51
2021/05/30 08:57:45;;;;;;;1.67;0.57;;;;;;;16.69;100.00;101137.06;4824891;29;20492;-51
2021/05/30 09:01:09;;;;;;;1.73;0.43;;;;;;;16.77;100.00;101134.59;4824544;29;20725;-51
2021/05/30 09:04:13;;;;;;;0.88;0.22;;;;;;;16.86;100.00;101140.13;4824607;29;20049;-50
2021/05/30 09:07:17;;;;;;;6.35;1.00;;;;;;;17.05;100.00;101139.41;4824328;29;20133;-51
2021/05/30 09:10:26;;;;;;;4.43;1.05;;;;;;;17.25;100.00;101144.28;4824302;29;20054;-50
2021/05/30 09:13:34;;;;;;;3.67;0.90;;;;;;;17.28;100.00;101146.13;4824410;29;20066;-51
2021/05/30 09:16:48;;;;;;;7.30;1.55;;;;;;;17.21;100.00;101152.19;4824491;29;20049;-51
2021/05/30 09:19:53;;;;;;;16.42;2.30;;;;;;;17.17;100.00;101145.97;4824246;29;20049;-50
2021/05/30 09:22:56;;;;;;;10.40;1.73;;;;;;;17.19;100.00;101143.44;4824417;29;20042;-51
2021/05/30 09:26:18;;;;;;;4.35;1.65;;;;;;;17.11;100.00;101147.91;4824223;29;20042;-51
2021/05/30 09:29:21;;;;;;;8.75;2.05;;;;;;;17.15;100.00;101145.69;4824200;29;20494;-52
2021/05/30 09:32:24;;;;;;;2.72;0.70;;;;;;;17.32;100.00;101141.06;4824250;29;20049;-51
2021/05/30 09:35:50;;;;;;;3.05;0.77;;;;;;;17.41;100.00;101155.03;4825391;29;20049;-51
2021/05/30 09:39:04;;;;;;;2.78;1.35;;;;;;;17.48;100.00;101162.28;4827213;29;20057;-51
2021/05/30 09:42:37;;;;;;;4.40;1.20;;;;;;;17.43;100.00;101163.75;4827852;29;20502;-51
2021/05/30 09:45:42;;;;;;;2.97;0.82;;;;;;;17.36;100.00;101161.34;4826910;29;20523;-50
2021/05/30 09:48:51;;;;;;;3.20;0.50;;;;;;;17.29;100.00;101158.94;4816026;29;20063;-53
2021/05/30 09:51:55;;;;;;;3.13;0.60;;;;;;;17.34;100.00;101161.06;4827315;29;20073;-52
2021/05/30 09:55:11;;;;;;;2.33;0.43;;;;;;;17.54;100.00;101155.50;4827189;29;20061;-51
2021/05/30 09:58:19;;;;;;;1.50;0.47;;;;;;;17.61;100.00;101162.72;4827367;29;20053;-51
2021/05/30 10:01:25;;;;;;;3.95;0.90;;;;;;;17.52;100.00;101166.44;4827181;29;20399;-51
2021/05/30 10:04:33;;;;;;;0.63;0.25;;;;;;;17.53;100.00;101170.81;4827142;29;20053;-51
2021/05/30 10:07:36;;;;;;;2.38;0.95;;;;;;;17.63;100.00;101165.84;4826999;29;20053;-51
2021/05/30 10:10:40;;;;;;;5.63;0.68;;;;;;;17.66;100.00;101168.44;4826981;29;20053;-51
2021/05/30 10:13:44;;;;;;;3.13;0.93;;;;;;;17.67;100.00;101164.34;4825962;29;20045;-52
2021/05/30 10:16:47;;;;;;;2.47;0.68;;;;;;;17.66;100.00;101162.81;4827155;29;20050;-52
2021/05/30 10:19:52;;;;;;;2.40;0.95;;;;;;;17.77;100.00;101171.41;4826700;29;20057;-52
2021/05/30 10:22:57;;;;;;;2.05;0.80;;;;;;;17.74;100.00;101166.75;4825510;29;20058;-51
2021/05/30 10:26:17;;;;;;;3.95;0.82;;;;;;;17.88;100.00;101165.91;4826436;29;20506;-51
2021/05/30 10:29:21;;;;;;;5.43;0.77;;;;;;;17.90;100.00;101163.38;4826803;29;20068;-51
2021/05/30 10:32:25;;;;;;;1.10;0.50;;;;;;;17.86;100.00;101162.81;4826712;29;20049;-52
2021/05/30 10:35:29;;;;;;;1.67;0.75;;;;;;;17.93;100.00;101162.34;4826585;29;20045;-51
2021/05/30 10:38:37;;;;;;;5.10;1.38;;;;;;;18.01;100.00;101155.03;4825977;29;20053;-51
2021/05/30 10:42:09;;;;;;;4.20;1.00;;;;;;;18.01;100.00;101146.59;4825942;29;20536;-52
2021/05/30 10:45:16;;;;;;;3.55;0.80;;;;;;;18.03;100.00;101155.31;4825597;29;20053;-51
2021/05/30 10:48:19;;;;;;;1.63;0.70;;;;;;;18.05;100.00;101152.78;4826436;29;20058;-51
2021/05/30 10:51:40;;;;;;;6.32;1.23;;;;;;;18.27;100.00;101140.19;4826169;29;20054;-52
2021/05/30 10:54:43;;;;;;;3.00;0.90;;;;;;;18.38;100.00;101148.75;4826232;29;20408;-52
2021/05/30 10:57:50;;;;;;;2.42;0.43;;;;;;;18.47;100.00;101145.78;4825803;29;20066;-52
2021/05/30 11:00:53;;;;;;;2.50;0.63;;;;;;;18.50;100.00;101148.38;4826204;29;20065;-52
2021/05/30 11:04:29;;;;;;;3.60;0.80;;;;;;;18.45;100.00;101142.69;4825717;29;20049;-51
2021/05/30 11:07:32;;;;;;;1.55;0.55;;;;;;;18.55;100.00;101141.25;4822437;29;20057;-51
2021/05/30 11:10:36;;;;;;;3.20;0.60;;;;;;;18.67;100.00;101134.41;4825450;29;20396;-52
2021/05/30 11:13:48;;;;;;;8.70;1.48;;;;;;;18.75;100.00;101141.16;4825897;29;20057;-51
2021/05/30 11:16:52;;;;;;;2.30;0.77;;;;;;;18.94;100.00;101136.69;4811019;29;20457;-52
2021/05/30 11:19:58;;;;;;;3.25;1.02;;;;;;;19.10;100.00;101132.44;4777052;29;20055;-51
2021/05/30 11:23:07;;;;;;;4.00;0.57;;;;;;;19.18;100.00;101127.84;4805715;29;20074;-52
2021/05/30 11:26:18;;;;;;;2.10;0.32;;;;;;;19.01;100.00;101127.75;4806852;29;20081;-52
2021/05/30 11:29:24;;;;;;;1.67;0.52;;;;;;;19.05;100.00;101125.47;4816808;29;20053;-51
2021/05/30 11:32:29;;;;;;;5.85;0.90;;;;;;;19.08;100.00;101121.63;4806694;29;20062;-51
2021/05/30 11:35:33;;;;;;;2.95;0.52;;;;;;;19.06;100.00;101117.78;4807112;29;20050;-52
2021/05/30 11:38:44;;;;;;;1.48;0.50;;;;;;;19.14;100.00;101113.97;4807347;29;20050;-51
2021/05/30 11:41:56;;;;;;;;;;;;;;;19.38;100.00;101108.72;4807627;29;20054;-51
2021/05/30 11:45:00;;;;;;;1.45;0.57;;;;;;;19.31;100.00;101112.00;4820482;29;19921;-51
2021/05/30 11:48:05;;;;;;;2.45;0.90;;;;;;;19.49;100.00;101108.78;4825393;29;20054;-51
2021/05/30 11:51:09;;;;;;;5.75;0.60;;;;;;;19.65;100.00;101108.06;4824970;29;20049;-51
2021/05/30 11:54:13;;;;;;;5.45;1.08;;;;;;;19.68;100.00;101106.28;4824864;29;20058;-52
2021/05/30 12:01:57;;;;;;;5.63;0.57;;;;;;;19.80;100.00;101101.44;4829844;29;20061;-51
2021/05/30 12:05:08;;;;;;;1.13;0.60;;;;;;;19.73;100.00;101099.13;4825166;29;20046;-52
2021/05/30 12:08:13;;;;;;;0.40;0.10;;;;;;;19.75;100.00;101090.91;4824741;29;20057;-51
2021/05/30 12:11:16;;;;;;;1.38;0.35;;;;;;;19.87;100.00;101104.56;4824735;29;20053;-51
2021/05/30 12:14:23;;;;;;;3.75;0.93;;;;;;;19.99;100.00;101091.22;4824871;29;20050;-51
2021/05/30 12:17:26;;;;;;;1.67;0.50;;;;;;;19.99;100.00;101088.41;4824681;29;20057;-52
2021/05/30 12:20:32;;;;;;;0.93;0.45;;;;;;;19.97;100.00;101090.94;4824126;29;20069;-51
2021/05/30 12:23:36;;;;;;;0.65;0.20;;;;;;;20.06;100.00;101082.22;4824553;29;20059;-52
2021/05/30 12:26:46;;;;;;;3.58;0.38;;;;;;;19.95;100.00;101082.19;4824578;29;20053;-52
2021/05/30 12:30:06;;;;;;;0.63;0.30;;;;;;;19.88;100.00;101077.81;4824550;29;20049;-51
2021/05/30 12:33:15;;;;;;;1.38;0.43;;;;;;;19.86;100.00;101077.53;4813900;29;20058;-51
2021/05/30 12:36:39;;;;;;;1.15;0.10;;;;;;;20.01;100.00;101074.50;4824481;29;20041;-52
2021/05/30 12:39:43;;;;;;;2.67;0.70;;;;;;;20.10;100.00;101083.50;4812826;29;20049;-52
2021/05/30 12:42:56;;;;;;;2.05;0.13;;;;;;;20.25;100.00;101083.28;4812987;29;20412;-52
2021/05/30 12:46:03;;;;;;;1.05;0.20;;;;;;;20.37;100.00;101074.31;4824117;29;20049;-52
2021/05/30 12:49:16;;;;;;;0.55;0.10;;;;;;;20.45;100.00;101076.63;4824443;29;20086;-52
2021/05/30 12:52:21;;;;;;;0.17;0.08;;;;;;;20.44;100.00;101069.44;4823855;29;20049;-52
2021/05/30 12:55:36;;;;;;;0.20;0.00;;;;;;;20.30;100.00;101069.16;4812892;29;20065;-52
2021/05/30 12:58:40;;;;;;;0.88;0.13;;;;;;;20.36;100.00;101067.09;4824518;29;20061;-52
2021/05/30 13:01:46;;;;;;;0.70;0.20;;;;;;;20.38;100.00;101063.75;4812576;29;20061;-52
2021/05/30 13:04:50;;;;;;;1.10;0.10;;;;;;;20.52;100.00;101059.91;4824115;29;20046;-51
2021/05/30 13:07:53;;;;;;;0.80;0.10;;;;;;;20.54;100.00;101048.84;4840393;29;20049;-52
2021/05/30 13:10:57;;;;;;;2.25;0.30;;;;;;;20.49;99.84;101057.34;4842047;29;20042;-52
2021/05/30 13:14:01;;;;;;;1.58;0.20;;;;;;;20.53;100.00;101052.94;4842162;29;20053;-52
2021/05/30 13:17:24;;;;;;;0.55;0.20;;;;;;;20.46;100.00;101050.66;4842573;29;20046;-52
2021/05/30 13:20:34;;;;;;;1.85;0.00;;;;;;;20.43;100.00;101048.84;4842011;29;20056;-51
2021/05/30 13:23:38;;;;;;;0.10;0.00;;;;;;;20.40;96.70;101038.53;4841730;29;20423;-52
2021/05/30 13:26:50;;;;;;;0.00;0.00;;;;;;;20.36;99.38;101032.38;4832111;29;20054;-52
2021/05/30 13:30:09;;;;;;;0.55;0.10;;;;;;;20.21;98.13;101032.63;4815272;29;20061;-52
2021/05/30 13:33:12;;;;;;;2.70;0.10;;;;;;;20.21;100.00;101026.19;4823692;29;20376;-51
2021/05/30 13:36:17;;;;;;;0.65;0.00;;;;;;;20.25;98.12;101018.22;4823508;29;20487;-51
2021/05/30 13:39:20;;;;;;;0.43;0.10;;;;;;;20.32;96.17;101026.19;4823958;29;20049;-50
2021/05/30 13:42:26;;;;;;;0.20;0.10;;;;;;;20.37;100.00;101005.63;4823458;29;20045;-51
2021/05/30 13:45:30;;;;;;;0.55;0.10;;;;;;;20.51;100.00;101006.66;4828400;29;20049;-51
2021/05/30 13:48:34;;;;;;;0.35;0.20;;;;;;;20.53;100.00;101006.91;4823733;29;20049;-51
2021/05/30 13:51:37;;;;;;;0.50;0.10;;;;;;;20.51;100.00;101007.41;4823627;29;20049;-51
2021/05/30 13:54:41;;;;;;;0.10;0.00;;;;;;;20.51;97.65;101001.75;4823589;29;20054;-52
2021/05/30 13:57:44;;;;;;;1.02;0.03;;;;;;;20.65;100.00;101009.19;4823224;29;20041;-51
2021/05/30 14:00:48;;;;;;;0.95;0.20;;;;;;;20.69;96.73;100998.38;4823507;29;20081;-51
2021/05/30 14:03:56;;;;;;;0.17;0.10;;;;;;;20.69;100.00;100997.59;4823563;29;20069;-51
2021/05/30 14:07:01;;;;;;;0.47;0.17;;;;;;;20.61;97.01;100997.38;4812475;29;20046;-51
2021/05/30 14:10:05;;;;;;;1.02;0.40;;;;;;;20.61;96.45;101003.03;4823414;29;20059;-51
2021/05/30 14:13:09;;;;;;;1.25;0.20;;;;;;;20.57;100.00;100996.88;4823349;29;20491;-49
2021/05/30 14:16:12;;;;;;;0.90;0.15;;;;;;;20.57;100.00;100984.75;4817170;29;20045;-52
2021/05/30 14:19:15;;;;;;;1.75;0.10;;;;;;;20.61;100.00;100980.38;4810105;29;20042;-51
2021/05/30 14:22:19;;;;;;;1.58;0.10;;;;;;;20.67;100.00;100978.31;4813690;29;20038;-54
2021/05/30 14:25:22;;;;;;;2.65;0.10;;;;;;;20.79;100.00;100970.56;4826751;29;20069;-52